METARs

lähialueen METAR Raportit

 

EFUT - Utti, Kouvola, FINLAND
Etäisyys asemasta: KA 0,7mi, 1km
Päivitetty: 17-07-2018 17:50
Selkeää
Selkeää
 Tuulen suunta KO
Tuuli: KO 14 mph , 22 km/h
Lämpötila: 88°F , 31°C
Kastepiste: 50°F , 10°C
Kosteus: 27%
Ilmanpaine: 29.97 inHg , 1015 hPa
Yhteenveto: Selkeää
Näkyvyys: yli 7 miles , 10 km
2018/07/17 14:50 EFUT 171450Z AUTO 05012KT CAVOK 31/10 Q1015
EFLP - Lappeenranta, FINLAND
Etäisyys asemasta: I 42mi, 67km
Päivitetty: 17-07-2018 17:50
Selkeää
Selkeää
 Tuulen suunta I
Tuuli: I 9 mph , 15 km/h
Lämpötila: 86°F , 30°C
Kastepiste: 52°F , 11°C
Kosteus: 31%
Ilmanpaine: 30 inHg , 1016 hPa
Yhteenveto: Selkeää
Näkyvyys: yli 7 miles , 10 km
2018/07/17 14:50 EFLP 171450Z AUTO 09008KT 040V130 CAVOK 30/11 Q1016

Metar display script from Saratoga-Weather.org

Page generated in 0.7 seconds.